sensor_id;sensor_type;location;lat;lon;timestamp;P1;durP1;ratioP1;P2;durP2;ratioP2
19863;SDS011;10094;48.820;9.226;2024-03-29T00:03:15;6.22;;;3.63;;
19863;SDS011;10094;48.820;9.226;2024-03-29T00:09:57;6.95;;;3.38;;
19863;SDS011;10094;48.820;9.226;2024-03-29T00:16:40;5.45;;;2.83;;
19863;SDS011;10094;48.820;9.226;2024-03-29T00:23:22;6.82;;;2.70;;
19863;SDS011;10094;48.820;9.226;2024-03-29T00:30:04;6.47;;;2.90;;
19863;SDS011;10094;48.820;9.226;2024-03-29T00:36:47;6.47;;;3.00;;
19863;SDS011;10094;48.820;9.226;2024-03-29T00:43:30;4.55;;;2.83;;
19863;SDS011;10094;48.820;9.226;2024-03-29T00:50:12;5.40;;;3.08;;
19863;SDS011;10094;48.820;9.226;2024-03-29T00:56:54;5.82;;;2.53;;
19863;SDS011;10094;48.820;9.226;2024-03-29T01:03:37;6.07;;;2.97;;
19863;SDS011;10094;48.820;9.226;2024-03-29T01:10:19;4.78;;;2.60;;
19863;SDS011;10094;48.820;9.226;2024-03-29T01:17:04;3.38;;;2.50;;
19863;SDS011;10094;48.820;9.226;2024-03-29T01:23:48;3.83;;;2.65;;
19863;SDS011;10094;48.820;9.226;2024-03-29T01:30:30;4.25;;;2.67;;
19863;SDS011;10094;48.820;9.226;2024-03-29T01:37:13;4.90;;;2.47;;
19863;SDS011;10094;48.820;9.226;2024-03-29T01:43:55;2.83;;;2.25;;
19863;SDS011;10094;48.820;9.226;2024-03-29T01:50:37;3.22;;;2.45;;
19863;SDS011;10094;48.820;9.226;2024-03-29T01:57:20;6.57;;;2.45;;
19863;SDS011;10094;48.820;9.226;2024-03-29T02:04:03;4.78;;;2.45;;
19863;SDS011;10094;48.820;9.226;2024-03-29T02:10:46;4.95;;;2.72;;
19863;SDS011;10094;48.820;9.226;2024-03-29T02:17:29;5.90;;;3.03;;
19863;SDS011;10094;48.820;9.226;2024-03-29T02:24:12;5.80;;;3.08;;
19863;SDS011;10094;48.820;9.226;2024-03-29T02:30:57;3.72;;;2.38;;
19863;SDS011;10094;48.820;9.226;2024-03-29T02:37:40;5.43;;;2.53;;
19863;SDS011;10094;48.820;9.226;2024-03-29T02:44:22;3.65;;;2.50;;
19863;SDS011;10094;48.820;9.226;2024-03-29T02:51:05;5.45;;;2.30;;
19863;SDS011;10094;48.820;9.226;2024-03-29T02:57:47;5.50;;;2.25;;
19863;SDS011;10094;48.820;9.226;2024-03-29T03:04:29;5.88;;;2.70;;
19863;SDS011;10094;48.820;9.226;2024-03-29T03:11:11;4.22;;;2.63;;
19863;SDS011;10094;48.820;9.226;2024-03-29T03:17:54;3.00;;;2.15;;
19863;SDS011;10094;48.820;9.226;2024-03-29T03:24:36;4.88;;;2.85;;
19863;SDS011;10094;48.820;9.226;2024-03-29T03:31:19;3.83;;;2.17;;
19863;SDS011;10094;48.820;9.226;2024-03-29T03:38:01;4.40;;;2.10;;
19863;SDS011;10094;48.820;9.226;2024-03-29T03:44:45;3.50;;;2.00;;
19863;SDS011;10094;48.820;9.226;2024-03-29T03:51:27;3.38;;;2.05;;
19863;SDS011;10094;48.820;9.226;2024-03-29T03:58:09;3.83;;;2.30;;
19863;SDS011;10094;48.820;9.226;2024-03-29T04:04:53;3.95;;;2.20;;
19863;SDS011;10094;48.820;9.226;2024-03-29T04:11:35;2.15;;;1.60;;
19863;SDS011;10094;48.820;9.226;2024-03-29T04:18:17;1.40;;;1.30;;
19863;SDS011;10094;48.820;9.226;2024-03-29T04:25:00;1.77;;;1.35;;
19863;SDS011;10094;48.820;9.226;2024-03-29T04:31:44;1.67;;;1.27;;
19863;SDS011;10094;48.820;9.226;2024-03-29T04:38:29;1.48;;;1.10;;
19863;SDS011;10094;48.820;9.226;2024-03-29T04:45:13;2.45;;;1.30;;
19863;SDS011;10094;48.820;9.226;2024-03-29T04:51:55;1.50;;;1.30;;
19863;SDS011;10094;48.820;9.226;2024-03-29T04:58:37;1.42;;;1.10;;
19863;SDS011;10094;48.820;9.226;2024-03-29T05:05:20;3.13;;;1.70;;
19863;SDS011;10094;48.820;9.226;2024-03-29T05:12:02;2.80;;;1.42;;
19863;SDS011;10094;48.820;9.226;2024-03-29T05:18:44;1.52;;;1.30;;
19863;SDS011;10094;48.820;9.226;2024-03-29T05:25:27;1.30;;;1.20;;
19863;SDS011;10094;48.820;9.226;2024-03-29T05:32:11;2.22;;;1.30;;
19863;SDS011;10094;48.820;9.226;2024-03-29T05:38:53;1.98;;;1.52;;
19863;SDS011;10094;48.820;9.226;2024-03-29T05:45:35;1.23;;;1.13;;
19863;SDS011;10094;48.820;9.226;2024-03-29T05:52:17;2.55;;;1.10;;
19863;SDS011;10094;48.820;9.226;2024-03-29T05:59:00;2.05;;;1.00;;
19863;SDS011;10094;48.820;9.226;2024-03-29T06:05:42;1.25;;;1.15;;
19863;SDS011;10094;48.820;9.226;2024-03-29T06:12:24;1.60;;;1.10;;
19863;SDS011;10094;48.820;9.226;2024-03-29T06:19:07;1.75;;;1.50;;
19863;SDS011;10094;48.820;9.226;2024-03-29T06:25:49;1.73;;;1.30;;
19863;SDS011;10094;48.820;9.226;2024-03-29T06:32:32;2.65;;;1.30;;
19863;SDS011;10094;48.820;9.226;2024-03-29T06:39:15;2.38;;;1.23;;
19863;SDS011;10094;48.820;9.226;2024-03-29T06:45:58;2.03;;;1.23;;
19863;SDS011;10094;48.820;9.226;2024-03-29T06:52:41;1.20;;;1.10;;
19863;SDS011;10094;48.820;9.226;2024-03-29T06:59:23;1.42;;;1.23;;
19863;SDS011;10094;48.820;9.226;2024-03-29T07:06:06;1.13;;;1.02;;
19863;SDS011;10094;48.820;9.226;2024-03-29T07:12:48;1.52;;;1.00;;
19863;SDS011;10094;48.820;9.226;2024-03-29T07:19:30;2.22;;;1.45;;
19863;SDS011;10094;48.820;9.226;2024-03-29T07:26:13;1.50;;;1.00;;
19863;SDS011;10094;48.820;9.226;2024-03-29T07:32:55;4.10;;;1.23;;
19863;SDS011;10094;48.820;9.226;2024-03-29T07:39:38;1.48;;;1.17;;
19863;SDS011;10094;48.820;9.226;2024-03-29T07:46:20;2.58;;;1.50;;
19863;SDS011;10094;48.820;9.226;2024-03-29T07:53:03;4.13;;;1.98;;
19863;SDS011;10094;48.820;9.226;2024-03-29T07:59:45;2.38;;;1.30;;
19863;SDS011;10094;48.820;9.226;2024-03-29T08:06:28;3.53;;;1.60;;
19863;SDS011;10094;48.820;9.226;2024-03-29T08:13:10;5.45;;;1.80;;
19863;SDS011;10094;48.820;9.226;2024-03-29T08:19:55;4.32;;;1.73;;
19863;SDS011;10094;48.820;9.226;2024-03-29T08:26:37;5.55;;;1.83;;
19863;SDS011;10094;48.820;9.226;2024-03-29T08:33:22;4.68;;;2.25;;
19863;SDS011;10094;48.820;9.226;2024-03-29T08:47:10;2.38;;;1.35;;
19863;SDS011;10094;48.820;9.226;2024-03-29T08:53:54;3.90;;;1.65;;
19863;SDS011;10094;48.820;9.226;2024-03-29T09:00:39;2.15;;;1.55;;
19863;SDS011;10094;48.820;9.226;2024-03-29T09:07:21;1.73;;;1.20;;
19863;SDS011;10094;48.820;9.226;2024-03-29T09:14:04;2.20;;;1.40;;
19863;SDS011;10094;48.820;9.226;2024-03-29T09:20:56;2.03;;;1.50;;
19863;SDS011;10094;48.820;9.226;2024-03-29T09:27:39;3.28;;;1.90;;
19863;SDS011;10094;48.820;9.226;2024-03-29T09:34:24;3.22;;;2.05;;
19863;SDS011;10094;48.820;9.226;2024-03-29T09:41:10;4.45;;;2.42;;
19863;SDS011;10094;48.820;9.226;2024-03-29T09:47:57;2.88;;;2.00;;
19863;SDS011;10094;48.820;9.226;2024-03-29T09:54:40;1.98;;;1.58;;
19863;SDS011;10094;48.820;9.226;2024-03-29T10:01:23;2.67;;;1.80;;
19863;SDS011;10094;48.820;9.226;2024-03-29T10:08:05;2.95;;;1.70;;
19863;SDS011;10094;48.820;9.226;2024-03-29T10:14:52;1.73;;;1.63;;
19863;SDS011;10094;48.820;9.226;2024-03-29T10:21:36;2.67;;;1.95;;
19863;SDS011;10094;48.820;9.226;2024-03-29T10:28:21;3.03;;;2.08;;
19863;SDS011;10094;48.820;9.226;2024-03-29T10:35:04;4.53;;;2.55;;
19863;SDS011;10094;48.820;9.226;2024-03-29T10:41:47;3.75;;;2.38;;
19863;SDS011;10094;48.820;9.226;2024-03-29T10:48:34;3.53;;;2.67;;
19863;SDS011;10094;48.820;9.226;2024-03-29T10:55:18;4.38;;;2.67;;
19863;SDS011;10094;48.820;9.226;2024-03-29T11:02:00;4.28;;;2.63;;
19863;SDS011;10094;48.820;9.226;2024-03-29T11:08:43;5.75;;;3.03;;
19863;SDS011;10094;48.820;9.226;2024-03-29T11:15:29;5.15;;;2.72;;
19863;SDS011;10094;48.820;9.226;2024-03-29T11:22:12;2.42;;;2.17;;
19863;SDS011;10094;48.820;9.226;2024-03-29T11:28:55;2.17;;;1.70;;
19863;SDS011;10094;48.820;9.226;2024-03-29T11:35:40;2.85;;;1.92;;
19863;SDS011;10094;48.820;9.226;2024-03-29T11:49:24;2.25;;;1.35;;
19863;SDS011;10094;48.820;9.226;2024-03-29T11:56:07;2.20;;;1.73;;
19863;SDS011;10094;48.820;9.226;2024-03-29T12:02:50;2.20;;;1.30;;
19863;SDS011;10094;48.820;9.226;2024-03-29T12:09:32;2.83;;;1.77;;
19863;SDS011;10094;48.820;9.226;2024-03-29T12:16:15;1.70;;;1.48;;
19863;SDS011;10094;48.820;9.226;2024-03-29T12:23:01;3.90;;;1.60;;
19863;SDS011;10094;48.820;9.226;2024-03-29T12:29:45;2.97;;;1.50;;
19863;SDS011;10094;48.820;9.226;2024-03-29T12:36:27;2.22;;;1.17;;
19863;SDS011;10094;48.820;9.226;2024-03-29T12:43:11;1.55;;;1.30;;
19863;SDS011;10094;48.820;9.226;2024-03-29T12:49:54;1.50;;;1.17;;
19863;SDS011;10094;48.820;9.226;2024-03-29T12:56:37;1.42;;;1.08;;
19863;SDS011;10094;48.820;9.226;2024-03-29T13:03:22;1.30;;;1.20;;
19863;SDS011;10094;48.820;9.226;2024-03-29T13:10:06;1.05;;;0.95;;
19863;SDS011;10094;48.820;9.226;2024-03-29T13:16:55;1.48;;;1.30;;
19863;SDS011;10094;48.820;9.226;2024-03-29T13:23:38;2.22;;;1.55;;
19863;SDS011;10094;48.820;9.226;2024-03-29T13:30:21;2.40;;;1.33;;
19863;SDS011;10094;48.820;9.226;2024-03-29T13:37:04;1.70;;;1.50;;
19863;SDS011;10094;48.820;9.226;2024-03-29T13:43:47;2.30;;;1.30;;
19863;SDS011;10094;48.820;9.226;2024-03-29T13:50:30;1.73;;;1.20;;
19863;SDS011;10094;48.820;9.226;2024-03-29T13:57:14;1.52;;;1.23;;
19863;SDS011;10094;48.820;9.226;2024-03-29T14:03:57;1.52;;;1.13;;
19863;SDS011;10094;48.820;9.226;2024-03-29T14:10:41;2.30;;;1.30;;
19863;SDS011;10094;48.820;9.226;2024-03-29T14:17:24;1.48;;;1.13;;
19863;SDS011;10094;48.820;9.226;2024-03-29T14:24:08;2.45;;;1.30;;
19863;SDS011;10094;48.820;9.226;2024-03-29T14:30:50;1.42;;;1.33;;
19863;SDS011;10094;48.820;9.226;2024-03-29T14:37:34;1.40;;;1.30;;
19863;SDS011;10094;48.820;9.226;2024-03-29T14:44:17;1.13;;;1.05;;
19863;SDS011;10094;48.820;9.226;2024-03-29T14:51:00;2.22;;;1.27;;
19863;SDS011;10094;48.820;9.226;2024-03-29T14:57:43;2.30;;;1.52;;
19863;SDS011;10094;48.820;9.226;2024-03-29T15:04:26;2.17;;;1.23;;
19863;SDS011;10094;48.820;9.226;2024-03-29T15:11:09;1.75;;;1.40;;
19863;SDS011;10094;48.820;9.226;2024-03-29T15:17:51;1.83;;;1.65;;
19863;SDS011;10094;48.820;9.226;2024-03-29T15:24:34;1.45;;;1.35;;
19863;SDS011;10094;48.820;9.226;2024-03-29T15:31:18;3.25;;;1.33;;
19863;SDS011;10094;48.820;9.226;2024-03-29T15:38:03;1.95;;;1.27;;
19863;SDS011;10094;48.820;9.226;2024-03-29T15:44:53;1.30;;;1.15;;
19863;SDS011;10094;48.820;9.226;2024-03-29T15:51:36;1.45;;;1.25;;
19863;SDS011;10094;48.820;9.226;2024-03-29T15:58:20;1.30;;;1.20;;
19863;SDS011;10094;48.820;9.226;2024-03-29T16:05:02;1.67;;;1.30;;
19863;SDS011;10094;48.820;9.226;2024-03-29T16:11:45;3.50;;;1.27;;
19863;SDS011;10094;48.820;9.226;2024-03-29T16:18:30;1.95;;;1.20;;
19863;SDS011;10094;48.820;9.226;2024-03-29T16:25:13;2.13;;;1.58;;
19863;SDS011;10094;48.820;9.226;2024-03-29T16:31:56;2.35;;;1.63;;
19863;SDS011;10094;48.820;9.226;2024-03-29T16:38:39;2.13;;;1.40;;
19863;SDS011;10094;48.820;9.226;2024-03-29T16:45:22;2.40;;;1.80;;
19863;SDS011;10094;48.820;9.226;2024-03-29T16:52:05;2.22;;;1.55;;
19863;SDS011;10094;48.820;9.226;2024-03-29T16:58:48;1.98;;;1.48;;
19863;SDS011;10094;48.820;9.226;2024-03-29T17:05:31;3.03;;;2.72;;
19863;SDS011;10094;48.820;9.226;2024-03-29T17:12:14;4.00;;;2.65;;
19863;SDS011;10094;48.820;9.226;2024-03-29T17:18:57;3.42;;;2.03;;
19863;SDS011;10094;48.820;9.226;2024-03-29T17:25:40;2.30;;;1.60;;
19863;SDS011;10094;48.820;9.226;2024-03-29T17:32:23;1.92;;;1.77;;
19863;SDS011;10094;48.820;9.226;2024-03-29T17:39:06;2.00;;;1.80;;
19863;SDS011;10094;48.820;9.226;2024-03-29T17:45:55;2.50;;;2.08;;
19863;SDS011;10094;48.820;9.226;2024-03-29T17:52:38;3.17;;;2.58;;
19863;SDS011;10094;48.820;9.226;2024-03-29T17:59:21;2.20;;;1.83;;
19863;SDS011;10094;48.820;9.226;2024-03-29T18:06:05;3.50;;;1.83;;
19863;SDS011;10094;48.820;9.226;2024-03-29T18:12:48;1.80;;;1.60;;
19863;SDS011;10094;48.820;9.226;2024-03-29T18:19:32;2.92;;;1.90;;
19863;SDS011;10094;48.820;9.226;2024-03-29T18:26:15;3.85;;;2.08;;
19863;SDS011;10094;48.820;9.226;2024-03-29T18:32:58;2.75;;;1.85;;
19863;SDS011;10094;48.820;9.226;2024-03-29T18:39:41;2.70;;;2.00;;
19863;SDS011;10094;48.820;9.226;2024-03-29T18:46:25;4.00;;;2.20;;
19863;SDS011;10094;48.820;9.226;2024-03-29T18:53:08;5.93;;;2.85;;
19863;SDS011;10094;48.820;9.226;2024-03-29T18:59:52;6.78;;;2.80;;
19863;SDS011;10094;48.820;9.226;2024-03-29T19:06:39;2.45;;;2.20;;
19863;SDS011;10094;48.820;9.226;2024-03-29T19:13:22;3.85;;;2.67;;
19863;SDS011;10094;48.820;9.226;2024-03-29T19:20:05;4.47;;;3.00;;
19863;SDS011;10094;48.820;9.226;2024-03-29T19:26:50;3.30;;;2.50;;
19863;SDS011;10094;48.820;9.226;2024-03-29T19:33:35;3.70;;;2.72;;
19863;SDS011;10094;48.820;9.226;2024-03-29T19:40:18;3.38;;;2.70;;
19863;SDS011;10094;48.820;9.226;2024-03-29T19:47:01;4.72;;;3.47;;
19863;SDS011;10094;48.820;9.226;2024-03-29T19:53:44;8.73;;;3.63;;
19863;SDS011;10094;48.820;9.226;2024-03-29T20:00:28;3.42;;;2.95;;
19863;SDS011;10094;48.820;9.226;2024-03-29T20:07:10;6.35;;;4.07;;
19863;SDS011;10094;48.820;9.226;2024-03-29T20:13:52;5.25;;;3.25;;
19863;SDS011;10094;48.820;9.226;2024-03-29T20:20:37;4.07;;;3.25;;
19863;SDS011;10094;48.820;9.226;2024-03-29T20:27:28;3.53;;;2.97;;
19863;SDS011;10094;48.820;9.226;2024-03-29T20:34:15;5.30;;;2.92;;
19863;SDS011;10094;48.820;9.226;2024-03-29T20:40:58;7.25;;;3.20;;
19863;SDS011;10094;48.820;9.226;2024-03-29T20:47:43;9.35;;;6.93;;
19863;SDS011;10094;48.820;9.226;2024-03-29T20:54:26;10.00;;;7.50;;
19863;SDS011;10094;48.820;9.226;2024-03-29T21:01:11;21.98;;;15.00;;
19863;SDS011;10094;48.820;9.226;2024-03-29T21:08:00;8.85;;;4.78;;
19863;SDS011;10094;48.820;9.226;2024-03-29T21:14:43;23.38;;;14.55;;
19863;SDS011;10094;48.820;9.226;2024-03-29T21:21:27;53.83;;;36.67;;
19863;SDS011;10094;48.820;9.226;2024-03-29T21:28:10;32.92;;;24.50;;
19863;SDS011;10094;48.820;9.226;2024-03-29T21:34:52;25.83;;;16.40;;
19863;SDS011;10094;48.820;9.226;2024-03-29T21:41:35;8.20;;;5.85;;
19863;SDS011;10094;48.820;9.226;2024-03-29T21:48:18;13.32;;;8.43;;
19863;SDS011;10094;48.820;9.226;2024-03-29T21:55:01;17.45;;;12.10;;
19863;SDS011;10094;48.820;9.226;2024-03-29T22:01:50;9.05;;;4.63;;
19863;SDS011;10094;48.820;9.226;2024-03-29T22:08:33;6.88;;;4.47;;
19863;SDS011;10094;48.820;9.226;2024-03-29T22:15:15;14.27;;;9.50;;
19863;SDS011;10094;48.820;9.226;2024-03-29T22:21:59;7.85;;;5.68;;
19863;SDS011;10094;48.820;9.226;2024-03-29T22:28:41;12.98;;;8.38;;
19863;SDS011;10094;48.820;9.226;2024-03-29T22:35:24;8.48;;;6.45;;
19863;SDS011;10094;48.820;9.226;2024-03-29T22:42:08;21.17;;;14.52;;
19863;SDS011;10094;48.820;9.226;2024-03-29T22:48:51;8.80;;;6.60;;
19863;SDS011;10094;48.820;9.226;2024-03-29T22:55:34;11.32;;;6.95;;
19863;SDS011;10094;48.820;9.226;2024-03-29T23:02:16;13.80;;;8.73;;
19863;SDS011;10094;48.820;9.226;2024-03-29T23:08:59;7.03;;;5.00;;
19863;SDS011;10094;48.820;9.226;2024-03-29T23:15:42;7.18;;;5.15;;
19863;SDS011;10094;48.820;9.226;2024-03-29T23:22:25;6.50;;;5.07;;
19863;SDS011;10094;48.820;9.226;2024-03-29T23:29:08;9.18;;;5.90;;
19863;SDS011;10094;48.820;9.226;2024-03-29T23:35:51;6.25;;;5.07;;
19863;SDS011;10094;48.820;9.226;2024-03-29T23:42:34;10.27;;;7.97;;
19863;SDS011;10094;48.820;9.226;2024-03-29T23:49:17;11.05;;;6.88;;
19863;SDS011;10094;48.820;9.226;2024-03-29T23:55:59;7.78;;;5.20;;
